createdAt,value
2023-09-27T00:02:23.723Z,39.58
2023-09-27T00:04:50.258Z,39.66
2023-09-27T00:07:16.798Z,39.25
2023-09-27T00:09:43.224Z,40.05
2023-09-27T00:12:09.638Z,39.98
2023-09-27T00:14:36.004Z,39.45
2023-09-27T00:17:02.442Z,39.84
2023-09-27T00:19:29.571Z,39.71
2023-09-27T00:21:55.952Z,39.90
2023-09-27T00:24:22.399Z,39.49
2023-09-27T00:26:48.783Z,39.59
2023-09-27T00:29:15.157Z,39.47
2023-09-27T00:31:41.608Z,39.44
2023-09-27T00:34:08.020Z,39.78
2023-09-27T00:36:34.431Z,39.36
2023-09-27T00:39:00.834Z,39.58
2023-09-27T00:41:27.265Z,39.56
2023-09-27T00:43:53.721Z,39.69
2023-09-27T00:46:20.179Z,39.48
2023-09-27T00:48:46.565Z,39.65
2023-09-27T00:51:12.990Z,39.80
2023-09-27T00:53:39.395Z,39.69
2023-09-27T00:56:07.309Z,39.92
2023-09-27T00:58:33.990Z,39.77
2023-09-27T01:01:00.426Z,39.83
2023-09-27T01:03:26.881Z,39.59
2023-09-27T01:05:53.369Z,39.76
2023-09-27T01:08:19.881Z,39.95
2023-09-27T01:10:46.313Z,39.52
2023-09-27T01:13:12.718Z,39.83
2023-09-27T01:15:39.264Z,39.61
2023-09-27T01:18:05.769Z,39.69
2023-09-27T01:20:32.350Z,39.75
2023-09-27T01:22:58.821Z,39.66
2023-09-27T01:25:25.257Z,39.54
2023-09-27T01:27:51.621Z,39.51
2023-09-27T01:30:18.021Z,39.70
2023-09-27T01:32:44.518Z,39.74
2023-09-27T01:35:11.073Z,39.81
2023-09-27T01:37:37.525Z,39.59
2023-09-27T01:40:03.952Z,40.06
2023-09-27T01:42:30.377Z,39.82
2023-09-27T01:44:56.789Z,39.71
2023-09-27T01:47:23.179Z,40.07
2023-09-27T01:49:49.626Z,39.97
2023-09-27T01:52:16.023Z,40.05
2023-09-27T01:54:42.393Z,39.68
2023-09-27T01:57:08.766Z,40.04
2023-09-27T01:59:35.234Z,39.72
2023-09-27T02:02:01.685Z,39.84
2023-09-27T02:04:28.192Z,39.62
2023-09-27T02:06:54.620Z,39.60
2023-09-27T02:09:20.983Z,39.61
2023-09-27T02:11:47.429Z,39.76
2023-09-27T02:14:13.873Z,39.61
2023-09-27T02:16:40.267Z,39.99
2023-09-27T02:19:06.667Z,39.84
2023-09-27T02:21:33.068Z,40.01
2023-09-27T02:23:59.448Z,39.83
2023-09-27T02:26:25.857Z,39.86
2023-09-27T02:28:52.502Z,39.64
2023-09-27T02:31:19.160Z,39.91
2023-09-27T02:33:45.573Z,39.67
2023-09-27T02:36:11.997Z,39.76
2023-09-27T02:38:38.435Z,39.79
2023-09-27T02:41:04.883Z,39.66
2023-09-27T02:43:31.338Z,39.94
2023-09-27T02:45:57.779Z,39.90
2023-09-27T02:48:24.255Z,39.82
2023-09-27T02:50:50.704Z,39.67
2023-09-27T02:53:17.143Z,39.76
2023-09-27T02:55:43.630Z,40.28
2023-09-27T02:58:10.083Z,40.02
2023-09-27T03:00:36.505Z,40.20
2023-09-27T03:03:02.910Z,40.09
2023-09-27T03:05:29.427Z,39.89
2023-09-27T03:07:55.882Z,40.06
2023-09-27T03:10:22.309Z,40.00
2023-09-27T03:12:48.775Z,39.91
2023-09-27T03:15:15.191Z,40.03
2023-09-27T03:17:41.875Z,40.01
2023-09-27T03:20:08.544Z,40.47
2023-09-27T03:22:34.940Z,40.15
2023-09-27T03:25:01.360Z,40.14
2023-09-27T03:27:27.727Z,39.86
2023-09-27T03:29:54.138Z,40.01
2023-09-27T03:32:20.531Z,39.79
2023-09-27T03:34:46.937Z,40.11
2023-09-27T03:37:13.304Z,39.91
2023-09-27T03:39:39.693Z,40.15
2023-09-27T03:42:06.101Z,40.51
2023-09-27T03:44:32.520Z,40.16
2023-09-27T03:46:59.055Z,40.42
2023-09-27T03:49:25.491Z,39.90
2023-09-27T03:51:51.850Z,40.06
2023-09-27T03:54:18.249Z,40.32
2023-09-27T03:56:44.659Z,39.93
2023-09-27T03:59:11.082Z,39.93
2023-09-27T04:01:37.508Z,40.08
2023-09-27T04:04:04.009Z,40.26
2023-09-27T04:06:30.458Z,40.25
2023-09-27T04:08:56.836Z,40.41
2023-09-27T04:11:23.260Z,40.38
2023-09-27T04:13:49.736Z,40.46
2023-09-27T04:16:16.275Z,40.07
2023-09-27T04:18:42.697Z,40.55
2023-09-27T04:21:09.114Z,40.29
2023-09-27T04:23:35.538Z,40.25
2023-09-27T04:26:01.994Z,40.59
2023-09-27T04:28:28.408Z,40.33
2023-09-27T04:30:54.815Z,40.36
2023-09-27T04:33:21.301Z,40.61
2023-09-27T04:35:48.396Z,40.33
2023-09-27T04:38:14.770Z,40.52
2023-09-27T04:40:41.142Z,40.16
2023-09-27T04:43:07.524Z,40.45
2023-09-27T04:45:33.948Z,40.70
2023-09-27T04:48:00.318Z,40.88
2023-09-27T04:50:26.718Z,40.53
2023-09-27T04:52:53.146Z,40.28
2023-09-27T04:55:19.574Z,40.82
2023-09-27T04:57:45.940Z,40.59
2023-09-27T05:00:12.311Z,40.82
2023-09-27T05:02:38.811Z,41.04
2023-09-27T05:05:05.338Z,40.93
2023-09-27T05:07:31.800Z,40.92
2023-09-27T05:09:58.164Z,40.57
2023-09-27T05:12:24.556Z,41.00
2023-09-27T05:14:50.968Z,40.79
2023-09-27T05:17:17.402Z,40.87
2023-09-27T05:19:43.782Z,40.55
2023-09-27T05:22:10.132Z,40.90
2023-09-27T05:24:36.481Z,40.63
2023-09-27T05:27:02.849Z,41.11
2023-09-27T05:29:29.210Z,40.88
2023-09-27T05:31:55.678Z,40.96
2023-09-27T05:34:22.037Z,40.84
2023-09-27T05:36:48.406Z,40.71
2023-09-27T05:39:14.774Z,40.88
2023-09-27T05:41:41.222Z,40.78
2023-09-27T05:44:07.656Z,40.51
2023-09-27T05:46:34.037Z,40.95
2023-09-27T05:49:00.457Z,40.94
2023-09-27T05:51:26.811Z,41.11
2023-09-27T05:53:53.303Z,40.70
2023-09-27T05:56:19.762Z,41.11
2023-09-27T05:58:46.166Z,41.02
2023-09-27T06:01:12.685Z,41.19
2023-09-27T06:03:39.204Z,40.98
2023-09-27T06:06:05.710Z,41.49
2023-09-27T06:08:32.210Z,41.44
2023-09-27T06:10:58.812Z,41.35
2023-09-27T06:13:25.280Z,41.05
2023-09-27T06:15:51.740Z,41.12
2023-09-27T06:18:18.220Z,41.29
2023-09-27T06:20:44.789Z,41.16
2023-09-27T06:23:11.209Z,40.87
2023-09-27T06:25:37.624Z,40.80
2023-09-27T06:28:03.981Z,41.08
2023-09-27T06:30:30.509Z,40.98
2023-09-27T06:32:57.053Z,40.92
2023-09-27T06:35:23.583Z,40.91
2023-09-27T06:37:50.277Z,41.12
2023-09-27T06:40:16.964Z,40.88
2023-09-27T06:42:43.352Z,41.14
2023-09-27T06:45:09.783Z,41.16
2023-09-27T06:47:36.279Z,40.96
2023-09-27T06:50:02.758Z,40.54
2023-09-27T06:52:29.194Z,40.67
2023-09-27T06:54:55.594Z,40.06
2023-09-27T06:57:21.946Z,39.89
2023-09-27T06:59:48.307Z,40.23
2023-09-27T07:02:14.685Z,40.37
2023-09-27T07:04:41.134Z,40.00
2023-09-27T07:07:07.522Z,40.10
2023-09-27T07:09:33.932Z,40.38
2023-09-27T07:12:00.356Z,39.86
2023-09-27T07:14:26.871Z,39.93
2023-09-27T07:17:00.803Z,39.68
2023-09-27T07:19:28.157Z,40.07
2023-09-27T07:21:54.510Z,39.97
2023-09-27T07:24:20.848Z,40.72
2023-09-27T07:26:48.511Z,40.33
2023-09-27T07:29:15.280Z,40.21
2023-09-27T07:31:41.769Z,39.57
2023-09-27T07:34:08.172Z,39.58
2023-09-27T07:36:34.561Z,39.76
2023-09-27T07:39:01.135Z,39.79
2023-09-27T07:41:27.690Z,39.79
2023-09-27T07:43:54.448Z,39.88
2023-09-27T07:46:21.093Z,40.42
2023-09-27T07:48:47.469Z,40.17
2023-09-27T07:51:13.815Z,39.85
2023-09-27T07:53:40.256Z,39.71
2023-09-27T07:56:06.652Z,39.85
2023-09-27T07:58:33.020Z,39.99
2023-09-27T08:00:59.525Z,39.73
2023-09-27T08:03:26.174Z,39.74
2023-09-27T08:05:52.576Z,40.62
2023-09-27T08:08:19.003Z,39.79
2023-09-27T08:10:45.433Z,39.80
2023-09-27T08:13:11.888Z,40.40
2023-09-27T08:15:38.334Z,40.12
2023-09-27T08:18:04.796Z,40.28
2023-09-27T08:20:31.260Z,40.02
2023-09-27T08:22:57.672Z,40.23
2023-09-27T08:25:24.050Z,40.49
2023-09-27T08:27:50.412Z,40.90
2023-09-27T08:30:16.803Z,40.15
2023-09-27T08:32:43.596Z,40.16
2023-09-27T08:35:10.226Z,40.75
2023-09-27T08:37:36.648Z,40.25
2023-09-27T08:40:03.232Z,40.86
2023-09-27T08:42:29.629Z,40.55
2023-09-27T08:44:56.001Z,40.25
2023-09-27T08:47:22.371Z,40.22
2023-09-27T08:49:48.788Z,40.43
2023-09-27T08:52:15.190Z,40.22
2023-09-27T08:54:41.584Z,40.24
2023-09-27T08:57:07.993Z,40.08
2023-09-27T08:59:34.432Z,40.29
2023-09-27T09:02:00.960Z,40.12
2023-09-27T09:04:27.503Z,40.43
2023-09-27T09:06:53.906Z,40.41
2023-09-27T09:09:20.356Z,40.12
2023-09-27T09:11:46.881Z,39.94
2023-09-27T09:14:13.303Z,40.04
2023-09-27T09:16:39.788Z,39.57
2023-09-27T09:19:06.198Z,40.14
2023-09-27T09:21:32.591Z,39.29
2023-09-27T09:23:58.965Z,39.58
2023-09-27T09:26:25.324Z,39.16
2023-09-27T09:28:52.876Z,39.22
2023-09-27T09:31:19.517Z,39.37
2023-09-27T09:33:45.945Z,39.13
2023-09-27T09:36:12.404Z,39.75
2023-09-27T09:38:38.860Z,38.71
2023-09-27T09:41:05.368Z,39.08
2023-09-27T09:43:31.785Z,38.85
2023-09-27T09:45:58.195Z,39.56
2023-09-27T09:48:24.691Z,38.87
2023-09-27T09:50:51.154Z,39.18
2023-09-27T09:53:17.561Z,39.17
2023-09-27T09:58:13.325Z,38.64
2023-09-27T10:00:39.732Z,39.12
2023-09-27T10:03:06.196Z,40.00
2023-09-27T10:05:32.653Z,39.15
2023-09-27T10:07:59.086Z,39.78
2023-09-27T10:10:25.478Z,39.35
2023-09-27T10:12:51.853Z,38.72
2023-09-27T10:15:18.197Z,39.23
2023-09-27T10:17:44.602Z,39.51
2023-09-27T10:20:11.156Z,39.91
2023-09-27T10:22:37.666Z,39.69
2023-09-27T10:25:04.064Z,39.11
2023-09-27T10:27:30.484Z,39.66
2023-09-27T10:29:56.847Z,39.62
2023-09-27T10:32:23.293Z,39.26
2023-09-27T10:34:49.745Z,39.97
2023-09-27T10:37:19.298Z,39.59
2023-09-27T10:39:46.190Z,39.55
2023-09-27T10:42:12.653Z,40.41
2023-09-27T10:44:39.095Z,39.60
2023-09-27T10:47:05.565Z,39.71
2023-09-27T10:49:31.945Z,39.78
2023-09-27T10:52:06.490Z,40.64
2023-09-27T10:54:33.768Z,40.56
2023-09-27T10:57:00.138Z,40.43
2023-09-27T10:59:26.570Z,40.00
2023-09-27T11:01:53.072Z,40.38
2023-09-27T11:04:19.506Z,40.33
2023-09-27T11:06:46.005Z,40.29
2023-09-27T11:09:12.356Z,40.60
2023-09-27T11:11:38.801Z,40.57
2023-09-27T11:14:05.164Z,41.45
2023-09-27T11:16:31.556Z,41.13
2023-09-27T11:18:57.993Z,40.25
2023-09-27T11:21:24.404Z,42.00
2023-09-27T11:23:51.146Z,41.29
2023-09-27T11:26:17.705Z,41.70
2023-09-27T11:28:44.119Z,40.97
2023-09-27T11:31:10.531Z,40.57
2023-09-27T11:33:36.947Z,41.11
2023-09-27T11:36:03.344Z,40.76
2023-09-27T11:38:29.771Z,40.77
2023-09-27T11:40:56.182Z,40.72
2023-09-27T11:43:22.590Z,41.10
2023-09-27T11:45:49.389Z,40.50
2023-09-27T11:48:16.022Z,40.66
2023-09-27T11:50:42.501Z,40.62
2023-09-27T11:53:09.149Z,41.23
2023-09-27T11:55:35.645Z,41.09
2023-09-27T11:58:02.034Z,41.59
2023-09-27T12:00:28.413Z,41.13
2023-09-27T12:02:57.683Z,40.22
2023-09-27T12:05:25.230Z,40.15
2023-09-27T12:07:52.065Z,40.60
2023-09-27T12:10:18.455Z,40.67
2023-09-27T12:12:44.866Z,41.93
2023-09-27T12:15:11.321Z,40.72
2023-09-27T12:17:37.813Z,41.87
2023-09-27T12:20:04.273Z,40.75
2023-09-27T12:22:30.679Z,40.10
2023-09-27T12:24:57.079Z,40.58
2023-09-27T12:27:23.509Z,41.96
2023-09-27T12:29:49.974Z,41.11
2023-09-27T12:32:16.411Z,41.10
2023-09-27T12:34:42.866Z,41.01
2023-09-27T12:37:09.372Z,41.00
2023-09-27T12:39:35.753Z,40.25
2023-09-27T12:42:02.124Z,40.74
2023-09-27T12:44:28.567Z,41.67
2023-09-27T12:46:54.967Z,40.89
2023-09-27T12:49:21.350Z,41.69
2023-09-27T12:51:49.730Z,41.34
2023-09-27T12:54:16.625Z,41.63
2023-09-27T12:56:43.143Z,41.42
2023-09-27T12:59:09.567Z,40.56
2023-09-27T13:01:37.458Z,41.42
2023-09-27T13:04:04.063Z,41.41
2023-09-27T13:06:30.580Z,41.87
2023-09-27T13:08:57.162Z,40.91
2023-09-27T13:11:23.631Z,40.93
2023-09-27T13:13:50.038Z,41.36
2023-09-27T13:16:16.473Z,41.06
2023-09-27T13:18:42.889Z,41.48
2023-09-27T13:21:09.307Z,40.07
2023-09-27T13:23:35.730Z,41.08
2023-09-27T13:26:02.098Z,40.88
2023-09-27T13:28:28.449Z,41.62
2023-09-27T13:30:54.890Z,40.82
2023-09-27T13:33:21.343Z,40.78
2023-09-27T13:35:47.825Z,41.21
2023-09-27T13:38:14.279Z,41.15
2023-09-27T13:40:40.740Z,41.45
2023-09-27T13:43:09.929Z,41.16
2023-09-27T13:45:36.461Z,40.80
2023-09-27T13:48:03.052Z,41.15
2023-09-27T13:50:29.575Z,41.29
2023-09-27T13:52:55.978Z,40.45
2023-09-27T13:55:22.400Z,41.03
2023-09-27T13:57:48.765Z,41.42
2023-09-27T14:00:15.175Z,41.09
2023-09-27T14:02:43.606Z,41.33
2023-09-27T14:05:10.562Z,40.87
2023-09-27T14:07:36.980Z,40.89
2023-09-27T14:10:03.369Z,41.08
2023-09-27T14:12:29.771Z,41.06
2023-09-27T14:14:56.319Z,40.70
2023-09-27T14:17:22.763Z,40.48
2023-09-27T14:19:49.209Z,41.27
2023-09-27T14:22:15.628Z,40.38
2023-09-27T14:24:42.130Z,40.49
2023-09-27T14:27:08.523Z,40.79
2023-09-27T14:29:36.020Z,40.67
2023-09-27T14:32:03.860Z,40.22
2023-09-27T14:34:41.591Z,40.47
2023-09-27T14:37:09.364Z,40.36
2023-09-27T14:39:35.757Z,40.20
2023-09-27T14:42:02.142Z,40.57
2023-09-27T14:44:28.553Z,39.97
2023-09-27T14:46:55.008Z,40.22
2023-09-27T14:49:21.464Z,40.00
2023-09-27T14:51:47.885Z,40.31
2023-09-27T14:54:14.278Z,39.91
2023-09-27T14:56:40.721Z,39.99
2023-09-27T14:59:07.106Z,40.07
2023-09-27T15:01:33.655Z,39.65
2023-09-27T15:04:00.328Z,39.81
2023-09-27T15:06:26.778Z,39.61
2023-09-27T15:08:53.184Z,39.68
2023-09-27T15:11:19.709Z,39.34
2023-09-27T15:13:46.179Z,39.19
2023-09-27T15:16:12.637Z,39.24
2023-09-27T15:18:39.004Z,39.46
2023-09-27T15:21:05.385Z,39.36
2023-09-27T15:23:31.745Z,39.39
2023-09-27T15:25:58.249Z,39.21
2023-09-27T15:28:24.767Z,39.78
2023-09-27T15:30:51.197Z,39.33
2023-09-27T15:33:17.588Z,39.47
2023-09-27T15:35:43.980Z,39.03
2023-09-27T15:38:10.360Z,39.30
2023-09-27T15:40:36.889Z,39.32
2023-09-27T15:43:03.246Z,39.17
2023-09-27T15:45:29.664Z,39.20
2023-09-27T15:47:56.177Z,39.35
2023-09-27T15:50:22.627Z,39.17
2023-09-27T15:52:49.141Z,38.99
2023-09-27T15:55:15.570Z,39.22
2023-09-27T15:57:41.967Z,39.30
2023-09-27T16:00:08.413Z,39.37
2023-09-27T16:02:34.807Z,39.10
2023-09-27T16:05:01.257Z,38.86
2023-09-27T16:07:27.657Z,39.02
2023-09-27T16:09:54.019Z,39.09
2023-09-27T16:12:20.390Z,39.21
2023-09-27T16:14:46.757Z,39.26
2023-09-27T16:17:13.163Z,39.00
2023-09-27T16:19:39.580Z,38.91
2023-09-27T16:22:06.025Z,39.06
2023-09-27T16:24:32.429Z,38.92
2023-09-27T16:26:58.797Z,38.87
2023-09-27T16:29:25.200Z,39.32
2023-09-27T16:31:52.090Z,39.20
2023-09-27T16:34:18.550Z,38.92
2023-09-27T16:36:45.982Z,38.97
2023-09-27T16:39:12.556Z,38.85
2023-09-27T16:41:38.973Z,39.12
2023-09-27T16:44:05.428Z,39.32
2023-09-27T16:46:31.874Z,38.98
2023-09-27T16:48:58.294Z,39.22
2023-09-27T16:51:24.779Z,39.22
2023-09-27T16:53:51.395Z,38.99
2023-09-27T16:56:18.010Z,39.17
2023-09-27T16:58:44.777Z,39.06
2023-09-27T17:01:11.353Z,39.14
2023-09-27T17:03:37.822Z,38.95
2023-09-27T17:06:04.259Z,39.00
2023-09-27T17:08:30.641Z,39.19
2023-09-27T17:10:57.083Z,39.14
2023-09-27T17:13:23.576Z,39.13
2023-09-27T17:15:50.062Z,39.15
2023-09-27T17:18:16.545Z,39.43
2023-09-27T17:20:42.982Z,38.99
2023-09-27T17:23:09.423Z,39.26
2023-09-27T17:25:35.872Z,39.04
2023-09-27T17:28:02.349Z,39.25
2023-09-27T17:30:28.722Z,39.24
2023-09-27T17:32:55.247Z,39.03
2023-09-27T17:35:21.670Z,39.32
2023-09-27T17:37:48.059Z,39.19
2023-09-27T17:40:14.451Z,39.05
2023-09-27T17:42:40.861Z,39.17
2023-09-27T17:45:07.209Z,39.13
2023-09-27T17:47:33.579Z,39.20
2023-09-27T17:50:00.164Z,39.08
2023-09-27T17:52:26.604Z,39.06
2023-09-27T17:54:52.974Z,39.26
2023-09-27T17:57:19.441Z,39.07
2023-09-27T17:59:45.832Z,39.20
2023-09-27T18:02:12.412Z,39.11
2023-09-27T18:04:38.919Z,39.45
2023-09-27T18:07:05.314Z,39.30
2023-09-27T18:09:31.695Z,39.15
2023-09-27T18:11:58.085Z,39.16
2023-09-27T18:14:24.515Z,39.54
2023-09-27T18:16:50.958Z,39.24
2023-09-27T18:19:17.398Z,39.19
2023-09-27T18:21:43.761Z,39.21
2023-09-27T18:24:10.128Z,39.56
2023-09-27T18:26:36.521Z,39.34
2023-09-27T18:29:02.930Z,39.42
2023-09-27T18:31:29.503Z,39.15
2023-09-27T18:33:56.001Z,39.39
2023-09-27T18:36:22.435Z,39.38
2023-09-27T18:38:48.794Z,39.29
2023-09-27T18:41:15.181Z,39.49
2023-09-27T18:43:41.627Z,39.38
2023-09-27T18:46:08.103Z,39.22
2023-09-27T18:48:34.583Z,39.39
2023-09-27T18:51:00.957Z,39.31
2023-09-27T18:53:27.317Z,39.46
2023-09-27T18:55:53.792Z,39.32
2023-09-27T18:58:20.259Z,39.48
2023-09-27T19:00:46.621Z,39.44
2023-09-27T19:03:12.999Z,39.26
2023-09-27T19:05:39.361Z,39.25
2023-09-27T19:08:05.775Z,39.45
2023-09-27T19:10:32.233Z,39.29
2023-09-27T19:12:58.671Z,39.32
2023-09-27T19:15:25.081Z,39.52
2023-09-27T19:17:51.607Z,39.27
2023-09-27T19:20:17.998Z,39.33
2023-09-27T19:22:44.367Z,39.25
2023-09-27T19:25:10.843Z,39.40
2023-09-27T19:27:37.234Z,39.52
2023-09-27T19:30:03.624Z,39.60
2023-09-27T19:32:30.033Z,39.66
2023-09-27T19:34:56.463Z,39.18
2023-09-27T19:37:22.853Z,39.57
2023-09-27T19:39:49.235Z,39.58
2023-09-27T19:42:15.611Z,39.40
2023-09-27T19:44:41.982Z,39.42
2023-09-27T19:47:08.423Z,39.51
2023-09-27T19:49:34.832Z,39.60
2023-09-27T19:52:01.246Z,39.59
2023-09-27T19:54:27.728Z,39.22
2023-09-27T19:56:54.139Z,39.43
2023-09-27T19:59:20.573Z,39.67
2023-09-27T20:01:47.117Z,39.39
2023-09-27T20:04:13.624Z,39.52
2023-09-27T20:06:40.097Z,39.25
2023-09-27T20:09:06.535Z,39.28
2023-09-27T20:11:32.950Z,39.41
2023-09-27T20:13:59.354Z,39.30
2023-09-27T20:16:25.846Z,39.82
2023-09-27T20:18:52.255Z,39.44
2023-09-27T20:21:18.614Z,39.70
2023-09-27T20:23:44.990Z,39.49
2023-09-27T20:26:11.482Z,39.55
2023-09-27T20:28:37.918Z,39.58
2023-09-27T20:31:04.371Z,39.53
2023-09-27T20:33:30.805Z,39.78
2023-09-27T20:35:57.173Z,39.65
2023-09-27T20:38:23.553Z,39.91
2023-09-27T20:40:49.949Z,39.58
2023-09-27T20:43:16.556Z,40.12
2023-09-27T20:45:42.987Z,39.55
2023-09-27T20:48:09.437Z,39.49
2023-09-27T20:50:35.878Z,39.61
2023-09-27T20:53:02.340Z,39.92
2023-09-27T20:55:28.780Z,39.73
2023-09-27T20:57:55.231Z,39.78
2023-09-27T21:00:21.616Z,39.83
2023-09-27T21:02:48.107Z,39.92
2023-09-27T21:05:14.529Z,39.78
2023-09-27T21:07:40.933Z,39.91
2023-09-27T21:10:07.304Z,40.40
2023-09-27T21:12:33.724Z,40.26
2023-09-27T21:15:00.142Z,39.73
2023-09-27T21:17:26.667Z,39.94
2023-09-27T21:19:53.098Z,39.80
2023-09-27T21:22:19.560Z,39.93
2023-09-27T21:24:45.999Z,39.80
2023-09-27T21:27:12.371Z,40.22
2023-09-27T21:29:38.792Z,39.97
2023-09-27T21:32:05.181Z,40.19
2023-09-27T21:34:31.588Z,40.28
2023-09-27T21:36:58.016Z,39.82
2023-09-27T21:39:24.371Z,40.34
2023-09-27T21:41:50.710Z,39.95
2023-09-27T21:44:17.167Z,39.91
2023-09-27T21:46:43.653Z,39.94
2023-09-27T21:49:10.100Z,40.12
2023-09-27T21:51:36.477Z,40.37
2023-09-27T21:54:02.869Z,39.94
2023-09-27T21:56:29.244Z,40.09
2023-09-27T21:58:55.647Z,40.21
2023-09-27T22:01:22.148Z,40.14
2023-09-27T22:03:48.650Z,39.81
2023-09-27T22:06:15.093Z,40.27
2023-09-27T22:08:41.592Z,40.02
2023-09-27T22:11:08.069Z,40.12
2023-09-27T22:13:34.495Z,40.02
2023-09-27T22:16:00.926Z,40.33
2023-09-27T22:18:27.334Z,40.18
2023-09-27T22:20:53.723Z,40.25
2023-09-27T22:23:20.101Z,40.06
2023-09-27T22:25:46.521Z,40.40
2023-09-27T22:28:12.912Z,40.25
2023-09-27T22:30:39.328Z,40.26
2023-09-27T22:33:05.732Z,40.25
2023-09-27T22:35:32.173Z,40.49
2023-09-27T22:37:58.606Z,40.24
2023-09-27T22:40:25.007Z,40.06
2023-09-27T22:42:51.430Z,40.02
2023-09-27T22:45:17.845Z,40.22
2023-09-27T22:47:44.233Z,40.32
2023-09-27T22:50:10.673Z,40.15
2023-09-27T22:52:37.121Z,40.45
2023-09-27T22:55:03.614Z,40.53
2023-09-27T22:57:30.022Z,40.27
2023-09-27T22:59:56.449Z,40.43
2023-09-27T23:02:22.846Z,40.48
2023-09-27T23:04:49.466Z,41.05
2023-09-27T23:07:15.930Z,40.51
2023-09-27T23:09:42.281Z,40.59
2023-09-27T23:12:08.669Z,40.64
2023-09-27T23:14:35.058Z,40.75
2023-09-27T23:17:01.471Z,40.43
2023-09-27T23:19:27.878Z,40.33
2023-09-27T23:21:54.260Z,40.59
2023-09-27T23:24:20.686Z,40.60
2023-09-27T23:26:47.132Z,40.57
2023-09-27T23:29:13.536Z,40.73
2023-09-27T23:31:39.957Z,40.61
2023-09-27T23:34:06.388Z,40.83
2023-09-27T23:36:32.746Z,40.54
2023-09-27T23:38:59.644Z,40.70
2023-09-27T23:41:26.227Z,40.71
2023-09-27T23:43:52.840Z,40.71
2023-09-27T23:46:19.444Z,40.75
2023-09-27T23:48:45.849Z,40.64
2023-09-27T23:51:12.245Z,41.07
2023-09-27T23:53:38.665Z,41.18
2023-09-27T23:56:05.160Z,40.86
2023-09-27T23:58:31.612Z,40.92
